KSAT/SAT METAR and TAF weather

Enter ICAO airport designator
Station Type Date Time Source
KSAT METAR 2018/04/21 10:51 UTC NOAA

KSAT 211051Z 08004KT 6SM -RA BR OVC008 17/15 A2997 RMK AO2 RAB45 SLP133 P0000 T01720150


Station Type Date Time Source
KSAT Decoded METAR 2018/04/21 10:51 UTC NOAA

SAN ANTONIO INTERNATIONAL AIRPORT , TX, United States (KSAT) 29-32N 098-28W 243M
Apr 21, 2018 - 06:51 AM EDT / 2018.04.21 1051 UTC
Wind: from the E (080 degrees) at 5 MPH (4 KT):0
Visibility: 6 mile(s):0
Sky conditions: overcast
Weather: light rain; mist
Precipitation last hour: A trace
Temperature: 63.0 F (17.2 C)
Dew Point: 59.0 F (15.0 C)
Relative Humidity: 86%
Pressure (altimeter): 29.97 in. Hg (1014 hPa)
ob: KSAT 211051Z 08004KT 6SM -RA BR OVC008 17/15 A2997 RMK AO2 RAB45 SLP133 P0000 T01720150
cycle: 11

Station Type Date Time Source
KSAT TAF 2018/04/21 12:27 UTC NOAA

TAF KSAT 211125Z 2112/2218 08004KT 6SM -RA BR OVC008
FM212000 16008KT P6SM -SHRA OVC015 PROB30 2200/2204 6SM -SHRA OVC007
FM220500 32010KT 6SM BR OVC015


Example: see airport list